Time,TemperatureF,DewpointF,PressureIn,WindDirection,WindDirectionDegrees,WindSpeedMPH,WindSpeedGustMPH,Humidity,HourlyPrecipIn,Conditions,Clouds,dailyrainin,SoftwareType,DateUTC
2014-01-24 00:00:00,20.7,15.5,30.69,NNE,15,6.0,15.0,80,0.00,,SKC,0.00,VWS V15.00,2014-01-24 06:00:00,
2014-01-24 00:01:00,20.7,15.5,30.69,North,2,9.0,15.0,80,0.00,,---,0.00,VWS V15.00,2014-01-24 06:01:00,
2014-01-24 00:06:00,20.7,15.5,30.69,NNW,333,4.0,10.0,80,0.00,,---,0.00,VWS V15.00,2014-01-24 06:06:00,
2014-01-24 00:11:00,20.8,15.6,30.69,NNW,338,4.0,12.0,80,0.00,,---,0.00,VWS V15.00,2014-01-24 06:11:00,
2014-01-24 00:16:00,20.8,15.3,30.69,North,9,4.0,12.0,79,0.00,,---,0.00,VWS V15.00,2014-01-24 06:16:00,
2014-01-24 00:21:00,20.9,15.4,30.69,North,352,6.0,12.0,79,0.00,,---,0.00,VWS V15.00,2014-01-24 06:21:00,
2014-01-24 00:26:00,21.0,15.2,30.69,NNE,15,5.0,12.0,78,0.00,,---,0.00,VWS V15.00,2014-01-24 06:26:00,
2014-01-24 00:30:00,21.1,15.3,30.69,NNE,30,4.0,12.0,78,0.00,,SKC,0.00,VWS V15.00,2014-01-24 06:30:00,
2014-01-24 00:31:00,21.1,15.3,30.69,NNE,31,1.0,12.0,78,0.00,,---,0.00,VWS V15.00,2014-01-24 06:31:00,
2014-01-24 00:36:00,21.1,15.0,30.69,NNW,331,5.0,11.0,77,0.00,,---,0.00,VWS V15.00,2014-01-24 06:36:00,
2014-01-24 00:41:00,21.2,14.8,30.69,NNE,12,6.0,11.0,76,0.00,,---,0.00,VWS V15.00,2014-01-24 06:41:00,
2014-01-24 00:46:00,21.3,14.9,30.69,North,356,4.0,11.0,76,0.00,,---,0.00,VWS V15.00,2014-01-24 06:46:00,
2014-01-24 00:51:00,21.4,14.4,30.69,North,5,6.0,11.0,74,0.00,,---,0.00,VWS V15.00,2014-01-24 06:51:00,
2014-01-24 00:56:00,21.5,14.2,30.69,NNW,345,4.0,11.0,73,0.00,,---,0.00,VWS V15.00,2014-01-24 06:56:00,
2014-01-24 01:00:00,21.7,14.4,30.69,NNW,345,3.0,11.0,73,0.00,,SKC,0.00,VWS V15.00,2014-01-24 07:00:00,
2014-01-24 01:01:00,21.6,14.0,30.69,North,353,4.0,11.0,72,0.00,,---,0.00,VWS V15.00,2014-01-24 07:01:00,
2014-01-24 01:06:00,21.8,14.2,30.69,North,354,5.0,10.0,72,0.00,,---,0.00,VWS V15.00,2014-01-24 07:06:00,
2014-01-24 01:11:00,21.9,13.6,30.68,NNW,341,4.0,11.0,70,0.00,,---,0.00,VWS V15.00,2014-01-24 07:11:00,
2014-01-24 01:16:00,22.0,13.7,30.69,North,11,4.0,11.0,70,0.00,,---,0.00,VWS V15.00,2014-01-24 07:16:00,
2014-01-24 01:21:00,22.1,13.5,30.69,NNW,336,3.0,11.0,69,0.00,,---,0.00,VWS V15.00,2014-01-24 07:21:00,
2014-01-24 01:26:00,22.3,13.4,30.69,NNE,25,4.0,11.0,68,0.00,,---,0.00,VWS V15.00,2014-01-24 07:26:00,
2014-01-24 01:30:00,22.4,12.8,30.69,North,351,5.0,11.0,66,0.00,,SKC,0.00,VWS V15.00,2014-01-24 07:30:00,
2014-01-24 01:31:00,22.4,12.8,30.69,NNW,333,3.0,11.0,66,0.00,,---,0.00,VWS V15.00,2014-01-24 07:31:00,
2014-01-24 01:36:00,22.4,12.4,30.69,North,357,9.0,9.0,65,0.00,,---,0.00,VWS V15.00,2014-01-24 07:36:00,
2014-01-24 01:41:00,22.5,12.9,30.69,NNE,20,5.0,9.0,66,0.00,,---,0.00,VWS V15.00,2014-01-24 07:41:00,
2014-01-24 01:46:00,22.6,11.9,30.69,NNE,14,4.0,9.0,63,0.00,,---,0.00,VWS V15.00,2014-01-24 07:46:00,
2014-01-24 01:51:00,22.6,11.9,30.68,NNW,342,5.0,9.0,63,0.00,,---,0.00,VWS V15.00,2014-01-24 07:51:00,
2014-01-24 01:56:00,22.6,11.2,30.68,NNE,25,4.0,9.0,61,0.00,,---,0.00,VWS V15.00,2014-01-24 07:56:00,
2014-01-24 02:00:00,22.7,11.3,30.68,North,8,7.0,9.0,61,0.00,,SKC,0.00,VWS V15.00,2014-01-24 08:00:00,
2014-01-24 02:01:00,22.7,11.3,30.68,North,356,7.0,9.0,61,0.00,,---,0.00,VWS V15.00,2014-01-24 08:01:00,
2014-01-24 02:06:00,22.7,11.6,30.68,North,351,1.0,7.0,62,0.00,,---,0.00,VWS V15.00,2014-01-24 08:06:00,
2014-01-24 02:11:00,22.7,11.6,30.68,North,11,6.0,7.0,62,0.00,,---,0.00,VWS V15.00,2014-01-24 08:11:00,
2014-01-24 02:16:00,22.7,11.6,30.68,NNE,25,2.0,7.0,62,0.00,,---,0.00,VWS V15.00,2014-01-24 08:16:00,
2014-01-24 02:21:00,22.8,11.0,30.68,NNW,328,4.0,9.0,60,0.00,,---,0.00,VWS V15.00,2014-01-24 08:21:00,
2014-01-24 02:26:00,22.8,10.6,30.69,NNE,14,5.0,10.0,59,0.00,,---,0.00,VWS V15.00,2014-01-24 08:26:00,
2014-01-24 02:30:00,22.9,10.7,30.69,NNW,329,1.0,10.0,59,0.00,,SKC,0.00,VWS V15.00,2014-01-24 08:30:00,
2014-01-24 02:31:00,22.9,10.3,30.69,NNW,346,3.0,10.0,58,0.00,,---,0.00,VWS V15.00,2014-01-24 08:31:00,
2014-01-24 02:36:00,22.9,10.7,30.69,NNE,18,3.0,8.0,59,0.00,,---,0.00,VWS V15.00,2014-01-24 08:36:00,
2014-01-24 02:41:00,22.9,10.3,30.68,NNE,30,3.0,9.0,58,0.00,,---,0.00,VWS V15.00,2014-01-24 08:41:00,
2014-01-24 02:46:00,22.9,10.7,30.68,North,357,3.0,9.0,59,0.00,,---,0.00,VWS V15.00,2014-01-24 08:46:00,
2014-01-24 02:51:00,23.0,10.4,30.68,NNW,328,3.0,9.0,58,0.00,,---,0.00,VWS V15.00,2014-01-24 08:51:00,
2014-01-24 02:56:00,23.1,10.1,30.68,NW,323,4.0,9.0,57,0.00,,---,0.00,VWS V15.00,2014-01-24 08:56:00,
2014-01-24 03:00:00,23.1,10.5,30.68,NW,319,4.0,9.0,58,0.00,,SKC,0.00,VWS V15.00,2014-01-24 09:00:00,
2014-01-24 03:01:00,23.1,10.5,30.68,North,352,1.0,9.0,58,0.00,,---,0.00,VWS V15.00,2014-01-24 09:01:00,
2014-01-24 03:06:00,23.1,10.5,30.68,NNW,331,3.0,7.0,58,0.00,,---,0.00,VWS V15.00,2014-01-24 09:06:00,
2014-01-24 03:11:00,23.1,10.5,30.67,North,4,4.0,7.0,58,0.00,,---,0.00,VWS V15.00,2014-01-24 09:11:00,
2014-01-24 03:16:00,23.2,9.8,30.68,NNW,344,6.0,7.0,56,0.00,,---,0.00,VWS V15.00,2014-01-24 09:16:00,
2014-01-24 03:21:00,23.3,10.7,30.68,North,8,4.0,7.0,58,0.00,,---,0.00,VWS V15.00,2014-01-24 09:21:00,
2014-01-24 03:26:00,23.4,10.4,30.68,North,350,4.0,7.0,57,0.00,,---,0.00,VWS V15.00,2014-01-24 09:26:00,
2014-01-24 03:30:00,23.4,10.0,30.68,NNW,329,2.0,8.0,56,0.00,,SKC,0.00,VWS V15.00,2014-01-24 09:30:00,
2014-01-24 03:31:00,23.4,10.0,30.68,WNW,293,1.0,8.0,56,0.00,,---,0.00,VWS V15.00,2014-01-24 09:31:00,
2014-01-24 03:36:00,23.5,10.1,30.68,North,351,2.0,5.0,56,0.00,,---,0.00,VWS V15.00,2014-01-24 09:36:00,
2014-01-24 03:41:00,23.5,9.3,30.68,NW,320,3.0,8.0,54,0.00,,---,0.00,VWS V15.00,2014-01-24 09:41:00,
2014-01-24 03:46:00,23.6,9.8,30.68,NNW,334,4.0,8.0,55,0.00,,---,0.00,VWS V15.00,2014-01-24 09:46:00,
2014-01-24 03:51:00,23.6,9.4,30.68,NNW,346,1.0,8.0,54,0.00,,---,0.00,VWS V15.00,2014-01-24 09:51:00,
2014-01-24 03:56:00,23.7,9.5,30.68,North,359,6.0,8.0,54,0.00,,---,0.00,VWS V15.00,2014-01-24 09:56:00,
2014-01-24 04:00:00,23.7,9.1,30.68,NW,326,3.0,8.0,53,0.00,,SKC,0.00,VWS V15.00,2014-01-24 10:00:00,
2014-01-24 04:01:00,23.7,9.1,30.68,NW,324,2.0,8.0,53,0.00,,---,0.00,VWS V15.00,2014-01-24 10:01:00,
2014-01-24 04:06:00,23.7,9.5,30.68,NNW,328,1.0,6.0,54,0.00,,---,0.00,VWS V15.00,2014-01-24 10:06:00,
2014-01-24 04:11:00,23.7,9.5,30.68,NNW,333,3.0,7.0,54,0.00,,---,0.00,VWS V15.00,2014-01-24 10:11:00,
2014-01-24 04:16:00,23.8,9.6,30.68,NW,307,2.0,9.0,54,0.00,,---,0.00,VWS V15.00,2014-01-24 10:16:00,
2014-01-24 04:21:00,23.8,9.2,30.68,NNW,338,2.0,9.0,53,0.00,,---,0.00,VWS V15.00,2014-01-24 10:21:00,
2014-01-24 04:26:00,23.8,9.6,30.67,NNW,334,5.0,9.0,54,0.00,,---,0.00,VWS V15.00,2014-01-24 10:26:00,
2014-01-24 04:30:00,23.6,9.4,30.68,NNW,333,2.0,9.0,54,0.00,,SKC,0.00,VWS V15.00,2014-01-24 10:30:00,
2014-01-24 04:31:00,23.7,9.1,30.68,NW,323,1.0,9.0,53,0.00,,---,0.00,VWS V15.00,2014-01-24 10:31:00,
2014-01-24 04:36:00,23.6,9.0,30.68,NNW,330,3.0,7.0,53,0.00,,---,0.00,VWS V15.00,2014-01-24 10:36:00,
2014-01-24 04:41:00,23.5,8.1,30.68,NNW,340,3.0,8.0,51,0.00,,---,0.00,VWS V15.00,2014-01-24 10:41:00,
2014-01-24 04:46:00,23.5,8.1,30.68,NNE,23,4.0,10.0,51,0.00,,---,0.00,VWS V15.00,2014-01-24 10:46:00,
2014-01-24 04:51:00,23.4,7.5,30.67,NNE,21,4.0,11.0,50,0.00,,---,0.00,VWS V15.00,2014-01-24 10:51:00,
2014-01-24 04:56:00,23.4,7.5,30.67,NNE,13,4.0,11.0,50,0.00,,---,0.00,VWS V15.00,2014-01-24 10:56:00,
2014-01-24 05:00:00,23.4,8.4,30.68,NW,307,2.0,11.0,52,0.00,,SKC,0.00,VWS V15.00,2014-01-24 11:00:00,
2014-01-24 05:01:00,23.4,8.4,30.68,North,360,2.0,11.0,52,0.00,,---,0.00,VWS V15.00,2014-01-24 11:01:00,
2014-01-24 05:06:00,23.4,7.9,30.68,North,11,6.0,8.0,51,0.00,,---,0.00,VWS V15.00,2014-01-24 11:06:00,
2014-01-24 05:11:00,23.4,8.4,30.67,NNW,333,2.0,8.0,52,0.00,,---,0.00,VWS V15.00,2014-01-24 11:11:00,
2014-01-24 05:16:00,23.4,8.4,30.68,NW,322,4.0,8.0,52,0.00,,---,0.00,VWS V15.00,2014-01-24 11:16:00,
2014-01-24 05:21:00,23.3,8.3,30.67,North,350,1.0,10.0,52,0.00,,---,0.00,VWS V15.00,2014-01-24 11:21:00,
2014-01-24 05:26:00,23.2,7.8,30.67,NNE,14,4.0,10.0,51,0.00,,---,0.00,VWS V15.00,2014-01-24 11:26:00,
2014-01-24 05:30:00,23.1,7.2,30.68,WNW,303,3.0,10.0,50,0.00,,SKC,0.00,VWS V15.00,2014-01-24 11:30:00,
2014-01-24 05:31:00,23.2,8.2,30.68,NW,314,5.0,10.0,52,0.00,,---,0.00,VWS V15.00,2014-01-24 11:31:00,
2014-01-24 05:36:00,23.2,7.3,30.68,NNW,335,6.0,8.0,50,0.00,,---,0.00,VWS V15.00,2014-01-24 11:36:00,
2014-01-24 05:41:00,23.1,7.7,30.68,NW,308,4.0,9.0,51,0.00,,---,0.00,VWS V15.00,2014-01-24 11:41:00,
2014-01-24 05:46:00,23.0,6.7,30.67,NNW,346,3.0,10.0,49,0.00,,---,0.00,VWS V15.00,2014-01-24 11:46:00,
2014-01-24 05:51:00,23.0,7.1,30.67,North,357,4.0,10.0,50,0.00,,---,0.00,VWS V15.00,2014-01-24 11:51:00,
2014-01-24 05:56:00,23.0,6.2,30.67,NNE,25,4.0,10.0,48,0.00,,---,0.00,VWS V15.00,2014-01-24 11:56:00,
2014-01-24 06:00:00,22.9,6.2,30.67,North,5,2.0,11.0,48,0.00,,SKC,0.00,VWS V15.00,2014-01-24 12:00:00,
2014-01-24 06:01:00,22.9,6.2,30.67,North,8,8.0,11.0,48,0.00,,---,0.00,VWS V15.00,2014-01-24 12:01:00,
2014-01-24 06:06:00,22.9,6.2,30.68,NNW,335,4.0,9.0,48,0.00,,---,0.00,VWS V15.00,2014-01-24 12:06:00,
2014-01-24 06:11:00,22.9,6.2,30.67,NW,321,3.0,11.0,48,0.00,,---,0.00,VWS V15.00,2014-01-24 12:11:00,
2014-01-24 06:16:00,22.8,6.1,30.67,NW,324,2.0,11.0,48,0.00,,---,0.00,VWS V15.00,2014-01-24 12:16:00,
2014-01-24 06:21:00,22.9,6.6,30.68,NW,323,4.0,11.0,49,0.00,,---,0.00,VWS V15.00,2014-01-24 12:21:00,
2014-01-24 06:26:00,22.9,6.2,30.68,NNW,336,4.0,11.0,48,0.00,,---,0.00,VWS V15.00,2014-01-24 12:26:00,
2014-01-24 06:30:00,22.8,6.1,30.68,North,3,3.0,14.0,48,0.00,,SKC,0.00,VWS V15.00,2014-01-24 12:30:00,
2014-01-24 06:31:00,22.9,6.6,30.68,NNW,328,6.0,11.0,49,0.00,,---,0.00,VWS V15.00,2014-01-24 12:31:00,
2014-01-24 06:36:00,22.8,6.1,30.68,WNW,295,1.0,13.0,48,0.00,,---,0.00,VWS V15.00,2014-01-24 12:36:00,
2014-01-24 06:41:00,22.8,6.1,30.68,NNW,331,6.0,13.0,48,0.00,,---,0.00,VWS V15.00,2014-01-24 12:41:00,
2014-01-24 06:46:00,22.8,6.1,30.68,North,360,2.0,13.0,48,0.00,,---,0.00,VWS V15.00,2014-01-24 12:46:00,
2014-01-24 06:51:00,22.7,6.0,30.68,North,350,4.0,13.0,48,0.00,,---,0.00,VWS V15.00,2014-01-24 12:51:00,
2014-01-24 06:56:00,22.7,6.0,30.68,NNW,336,2.0,13.0,48,0.00,,---,0.00,VWS V15.00,2014-01-24 12:56:00,
2014-01-24 07:00:00,22.7,6.0,30.68,NW,311,1.0,13.0,48,0.00,,SKC,0.00,VWS V15.00,2014-01-24 13:00:00,
2014-01-24 07:01:00,22.7,6.0,30.68,NNE,15,6.0,13.0,48,0.00,,---,0.00,VWS V15.00,2014-01-24 13:01:00,
2014-01-24 07:06:00,22.7,6.0,30.68,NW,306,2.0,9.0,48,0.00,,---,0.00,VWS V15.00,2014-01-24 13:06:00,
2014-01-24 07:11:00,22.7,6.0,30.68,NW,318,1.0,11.0,48,0.00,,---,0.00,VWS V15.00,2014-01-24 13:11:00,
2014-01-24 07:16:00,22.7,6.0,30.68,WNW,303,5.0,12.0,48,0.00,,---,0.00,VWS V15.00,2014-01-24 13:16:00,
2014-01-24 07:21:00,22.7,6.4,30.69,North,352,6.0,12.0,49,0.00,,---,0.00,VWS V15.00,2014-01-24 13:21:00,
2014-01-24 07:26:00,22.6,6.3,30.69,North,354,6.0,12.0,49,0.00,,---,0.00,VWS V15.00,2014-01-24 13:26:00,
2014-01-24 07:30:00,22.7,6.4,30.68,NW,306,2.0,12.0,49,0.00,,SKC,0.00,VWS V15.00,2014-01-24 13:30:00,
2014-01-24 07:31:00,22.7,6.4,30.68,NW,312,1.0,12.0,49,0.00,,---,0.00,VWS V15.00,2014-01-24 13:31:00,
2014-01-24 07:36:00,22.6,6.8,30.68,NNW,347,2.0,6.0,50,0.00,,---,0.00,VWS V15.00,2014-01-24 13:36:00,
2014-01-24 07:41:00,22.7,6.9,30.69,North,6,5.0,6.0,50,0.00,,---,0.00,VWS V15.00,2014-01-24 13:41:00,
2014-01-24 07:46:00,22.7,7.3,30.69,NNW,330,2.0,7.0,51,0.00,,---,0.00,VWS V15.00,2014-01-24 13:46:00,
2014-01-24 07:51:00,22.7,6.4,30.68,NW,307,3.0,9.0,49,0.00,,---,0.00,VWS V15.00,2014-01-24 13:51:00,
2014-01-24 07:56:00,22.6,6.3,30.68,NNW,337,5.0,9.0,49,0.00,,---,0.00,VWS V15.00,2014-01-24 13:56:00,
2014-01-24 08:00:00,22.6,6.3,30.68,WNW,297,6.0,10.0,49,0.00,,SKC,0.00,VWS V15.00,2014-01-24 14:00:00,
2014-01-24 08:01:00,22.6,5.9,30.68,North,351,2.0,10.0,48,0.00,,---,0.00,VWS V15.00,2014-01-24 14:01:00,
2014-01-24 08:06:00,22.7,6.4,30.68,NNW,330,4.0,6.0,49,0.00,,---,0.00,VWS V15.00,2014-01-24 14:06:00,
2014-01-24 08:11:00,22.6,5.4,30.67,NNW,335,5.0,10.0,47,0.00,,---,0.00,VWS V15.00,2014-01-24 14:11:00,
2014-01-24 08:16:00,22.6,4.9,30.67,WNW,287,4.0,13.0,46,0.00,,---,0.00,VWS V15.00,2014-01-24 14:16:00,
2014-01-24 08:21:00,22.6,4.9,30.67,North,358,8.0,13.0,46,0.00,,---,0.00,VWS V15.00,2014-01-24 14:21:00,
2014-01-24 08:26:00,22.7,5.5,30.67,North,3,7.0,13.0,47,0.00,,---,0.00,VWS V15.00,2014-01-24 14:26:00,
2014-01-24 08:30:00,22.7,5.0,30.67,North,6,8.0,13.0,46,0.00,,SKC,0.00,VWS V15.00,2014-01-24 14:30:00,
2014-01-24 08:31:00,22.7,5.5,30.67,North,2,10.0,13.0,47,0.00,,---,0.00,VWS V15.00,2014-01-24 14:31:00,
2014-01-24 08:36:00,22.7,5.0,30.67,NNW,345,3.0,8.0,46,0.00,,---,0.00,VWS V15.00,2014-01-24 14:36:00,
2014-01-24 08:41:00,22.8,5.1,30.67,NNW,338,4.0,8.0,46,0.00,,---,0.00,VWS V15.00,2014-01-24 14:41:00,
2014-01-24 08:46:00,22.8,5.1,30.67,NNE,15,5.0,8.0,46,0.00,,---,0.00,VWS V15.00,2014-01-24 14:46:00,
2014-01-24 08:51:00,22.9,5.2,30.66,North,2,4.0,8.0,46,0.00,,---,0.00,VWS V15.00,2014-01-24 14:51:00,
2014-01-24 08:56:00,23.1,6.3,30.67,NNW,335,1.0,9.0,48,0.00,,---,0.00,VWS V15.00,2014-01-24 14:56:00,
2014-01-24 09:00:00,23.3,5.6,30.67,WNW,295,2.0,9.0,46,0.00,,SKC,0.00,VWS V15.00,2014-01-24 15:00:00,
2014-01-24 09:01:00,23.3,6.1,30.67,North,357,4.0,9.0,47,0.00,,---,0.00,VWS V15.00,2014-01-24 15:01:00,
2014-01-24 09:06:00,23.5,6.7,30.67,NW,309,1.0,4.0,48,0.00,,---,0.00,VWS V15.00,2014-01-24 15:06:00,
2014-01-24 09:11:00,23.8,7.0,30.68,NW,313,3.0,6.0,48,0.00,,---,0.00,VWS V15.00,2014-01-24 15:11:00,
2014-01-24 09:16:00,23.9,7.1,30.68,NW,307,2.0,6.0,48,0.00,,---,0.00,VWS V15.00,2014-01-24 15:16:00,
2014-01-24 09:21:00,24.1,7.7,30.68,NNW,332,5.0,6.0,49,0.00,,---,0.00,VWS V15.00,2014-01-24 15:21:00,
2014-01-24 09:26:00,24.1,6.8,30.68,NW,321,2.0,6.0,47,0.00,,---,0.00,VWS V15.00,2014-01-24 15:26:00,
2014-01-24 09:30:00,24.4,7.1,30.67,NNW,333,5.0,7.0,47,0.00,,SKC,0.00,VWS V15.00,2014-01-24 15:30:00,
2014-01-24 09:31:00,24.3,7.4,30.67,NW,326,2.0,6.0,48,0.00,,---,0.00,VWS V15.00,2014-01-24 15:31:00,
2014-01-24 09:36:00,24.4,7.5,30.67,North,352,2.0,5.0,48,0.00,,---,0.00,VWS V15.00,2014-01-24 15:36:00,
2014-01-24 09:41:00,24.6,7.3,30.67,WNW,297,2.0,6.0,47,0.00,,---,0.00,VWS V15.00,2014-01-24 15:41:00,
2014-01-24 09:46:00,24.9,8.5,30.67,NNW,334,1.0,6.0,49,0.00,,---,0.00,VWS V15.00,2014-01-24 15:46:00,
2014-01-24 09:51:00,24.8,6.0,30.67,NW,309,4.0,7.0,44,0.00,,---,0.00,VWS V15.00,2014-01-24 15:51:00,
2014-01-24 09:56:00,25.0,7.6,30.67,North,11,4.0,7.0,47,0.00,,---,0.00,VWS V15.00,2014-01-24 15:56:00,
2014-01-24 10:00:00,25.3,7.4,30.68,NNW,347,3.0,7.0,46,0.00,,SKC,0.00,VWS V15.00,2014-01-24 16:00:00,
2014-01-24 10:01:00,25.1,6.3,30.68,NW,304,2.0,7.0,44,0.00,,---,0.00,VWS V15.00,2014-01-24 16:01:00,
2014-01-24 10:06:00,25.3,6.4,30.68,North,352,2.0,4.0,44,0.00,,---,0.00,VWS V15.00,2014-01-24 16:06:00,
2014-01-24 10:11:00,25.5,6.6,30.68,NW,311,5.0,6.0,44,0.00,,---,0.00,VWS V15.00,2014-01-24 16:11:00,
2014-01-24 10:16:00,25.5,7.1,30.68,NW,308,4.0,7.0,45,0.00,,---,0.00,VWS V15.00,2014-01-24 16:16:00,
2014-01-24 10:21:00,25.7,7.3,30.67,NW,312,2.0,7.0,45,0.00,,---,0.00,VWS V15.00,2014-01-24 16:21:00,
2014-01-24 10:26:00,26.0,7.6,30.67,NW,307,4.0,7.0,45,0.00,,---,0.00,VWS V15.00,2014-01-24 16:26:00,
2014-01-24 10:30:00,26.3,8.4,30.67,West,273,3.0,7.0,46,0.00,,SKC,0.00,VWS V15.00,2014-01-24 16:30:00,
2014-01-24 10:31:00,26.2,7.8,30.67,NW,319,2.0,7.0,45,0.00,,---,0.00,VWS V15.00,2014-01-24 16:31:00,
2014-01-24 10:36:00,26.2,8.3,30.67,WNW,302,1.0,4.0,46,0.00,,---,0.00,VWS V15.00,2014-01-24 16:36:00,
2014-01-24 10:41:00,26.3,6.9,30.67,WNW,293,3.0,6.0,43,0.00,,---,0.00,VWS V15.00,2014-01-24 16:41:00,
2014-01-24 10:46:00,26.4,6.4,30.67,WNW,295,2.0,6.0,42,0.00,,---,0.00,VWS V15.00,2014-01-24 16:46:00,
2014-01-24 10:51:00,26.5,6.5,30.66,West,270,2.0,6.0,42,0.00,,---,0.00,VWS V15.00,2014-01-24 16:51:00,
2014-01-24 10:56:00,26.7,7.2,30.66,West,264,3.0,6.0,43,0.00,,---,0.00,VWS V15.00,2014-01-24 16:56:00,
2014-01-24 11:00:00,27.1,7.1,30.66,West,266,3.0,6.0,42,0.00,,SKC,0.00,VWS V15.00,2014-01-24 17:00:00,
2014-01-24 11:01:00,27.0,7.5,30.66,WNW,286,3.0,6.0,43,0.00,,---,0.00,VWS V15.00,2014-01-24 17:01:00,
2014-01-24 11:06:00,27.2,8.2,30.66,NW,320,2.0,4.0,44,0.00,,---,0.00,VWS V15.00,2014-01-24 17:06:00,
2014-01-24 11:11:00,27.2,6.6,30.65,West,271,5.0,7.0,41,0.00,,---,0.00,VWS V15.00,2014-01-24 17:11:00,
2014-01-24 11:16:00,27.3,7.2,30.65,West,280,4.0,7.0,42,0.00,,---,0.00,VWS V15.00,2014-01-24 17:16:00,
2014-01-24 11:21:00,27.5,8.5,30.65,West,274,4.0,7.0,44,0.00,,---,0.00,VWS V15.00,2014-01-24 17:21:00,
2014-01-24 11:26:00,27.6,7.5,30.65,NW,323,3.0,7.0,42,0.00,,---,0.00,VWS V15.00,2014-01-24 17:26:00,
2014-01-24 11:30:00,28.0,8.9,30.64,WNW,288,2.0,7.0,44,0.00,,SKC,0.00,VWS V15.00,2014-01-24 17:30:00,
2014-01-24 11:31:00,27.7,7.6,30.64,WNW,293,3.0,7.0,42,0.00,,---,0.00,VWS V15.00,2014-01-24 17:31:00,
2014-01-24 11:36:00,28.2,9.1,30.64,WNW,296,3.0,4.0,44,0.00,,SKC,0.00,VWS V15.00,2014-01-24 17:36:00,
2014-01-24 11:41:00,28.4,8.8,30.63,WSW,255,2.0,5.0,43,0.00,,SKC,0.00,VWS V15.00,2014-01-24 17:41:00,
2014-01-24 11:46:00,28.3,7.6,30.62,NW,311,2.0,5.0,41,0.00,,SKC,0.00,VWS V15.00,2014-01-24 17:46:00,
2014-01-24 11:51:00,28.4,8.8,30.62,WNW,294,4.0,5.0,43,0.00,,SKC,0.00,VWS V15.00,2014-01-24 17:51:00,
2014-01-24 11:56:00,28.8,9.1,30.62,WNW,295,3.0,5.0,43,0.00,,SKC,0.00,VWS V15.00,2014-01-24 17:56:00,
2014-01-24 12:00:00,29.2,9.0,30.61,WNW,295,3.0,6.0,42,0.00,,SKC,0.00,VWS V15.00,2014-01-24 18:00:00,
2014-01-24 12:01:00,29.2,9.5,30.61,NNW,328,6.0,6.0,43,0.00,,SKC,0.00,VWS V15.00,2014-01-24 18:01:00,
2014-01-24 12:05:00,29.2,7.9,30.61,North,353,1.0,3.0,40,0.00,,SKC,0.00,VWS V15.00,2014-01-24 18:05:00,
2014-01-24 12:11:00,29.8,11.1,30.60,NW,304,4.0,6.0,45,0.00,,SKC,0.00,VWS V15.00,2014-01-24 18:11:00,
2014-01-24 12:15:00,30.0,9.2,30.60,West,267,1.0,6.0,41,0.00,,SKC,0.00,VWS V15.00,2014-01-24 18:15:00,
2014-01-24 12:21:00,30.2,8.8,30.59,North,8,1.0,6.0,40,0.00,,SKC,0.00,VWS V15.00,2014-01-24 18:21:00,
2014-01-24 12:25:00,30.8,9.9,30.59,NNW,329,1.0,6.0,41,0.00,,SKC,0.00,VWS V15.00,2014-01-24 18:25:00,
2014-01-24 12:30:00,30.9,10.5,30.59,NW,323,2.0,6.0,42,0.00,,SKC,0.00,VWS V15.00,2014-01-24 18:30:00,
2014-01-24 12:35:00,31.0,10.6,30.58,SW,228,3.0,5.0,42,0.00,,SKC,0.00,VWS V15.00,2014-01-24 18:35:00,
2014-01-24 12:40:00,31.3,11.4,30.58,NW,326,4.0,5.0,43,0.00,,SKC,0.00,VWS V15.00,2014-01-24 18:40:00,
2014-01-24 12:45:00,31.3,9.8,30.58,SW,228,1.0,5.0,40,0.00,,SKC,0.00,VWS V15.00,2014-01-24 18:45:00,
2014-01-24 12:50:00,31.8,11.3,30.57,WNW,300,3.0,5.0,42,0.00,,SKC,0.00,VWS V15.00,2014-01-24 18:50:00,
2014-01-24 12:55:00,32.1,11.1,30.57,West,259,2.0,5.0,41,0.00,,SKC,0.00,VWS V15.00,2014-01-24 18:55:00,
2014-01-24 13:00:00,32.1,11.6,30.57,West,270,5.0,6.0,42,0.00,,SKC,0.00,VWS V15.00,2014-01-24 19:00:00,
2014-01-24 13:05:00,32.3,11.8,30.57,WNW,285,5.0,6.0,42,0.00,,SKC,0.00,VWS V15.00,2014-01-24 19:05:00,
2014-01-24 13:10:00,32.4,11.3,30.56,NW,309,1.0,6.0,41,0.00,,SKC,0.00,VWS V15.00,2014-01-24 19:10:00,
2014-01-24 13:15:00,32.5,12.5,30.55,WSW,253,2.0,7.0,43,0.00,,SKC,0.00,VWS V15.00,2014-01-24 19:15:00,
2014-01-24 13:20:00,32.7,12.2,30.55,West,262,5.0,7.0,42,0.00,,SKC,0.00,VWS V15.00,2014-01-24 19:20:00,
2014-01-24 13:25:00,32.7,11.6,30.55,West,273,2.0,7.0,41,0.00,,SKC,0.00,VWS V15.00,2014-01-24 19:25:00,
2014-01-24 13:30:00,33.2,13.7,30.55,West,281,3.0,7.0,44,0.00,,SKC,0.00,VWS V15.00,2014-01-24 19:30:00,
2014-01-24 13:35:00,33.3,12.7,30.54,West,278,2.0,5.0,42,0.00,,SKC,0.00,VWS V15.00,2014-01-24 19:35:00,
2014-01-24 13:40:00,33.2,12.6,30.53,West,264,1.0,5.0,42,0.00,,SKC,0.00,VWS V15.00,2014-01-24 19:40:00,
2014-01-24 13:45:00,33.4,12.8,30.53,WNW,294,4.0,6.0,42,0.00,,SKC,0.00,VWS V15.00,2014-01-24 19:45:00,
2014-01-24 13:50:00,33.4,12.2,30.53,SW,234,1.0,6.0,41,0.00,,SKC,0.00,VWS V15.00,2014-01-24 19:50:00,
2014-01-24 13:55:00,33.8,13.1,30.52,WSW,254,1.0,6.0,42,0.00,,SKC,0.00,VWS V15.00,2014-01-24 19:55:00,
2014-01-24 14:00:00,34.2,13.0,30.52,WSW,252,4.0,6.0,41,0.00,,SKC,0.00,VWS V15.00,2014-01-24 20:00:00,
2014-01-24 14:05:00,34.3,13.1,30.51,SSW,207,4.0,4.0,41,0.00,,SKC,0.00,VWS V15.00,2014-01-24 20:05:00,
2014-01-24 14:10:00,34.7,13.4,30.50,WSW,246,3.0,6.0,41,0.00,,SKC,0.00,VWS V15.00,2014-01-24 20:10:00,
2014-01-24 14:15:00,35.2,13.9,30.50,WSW,239,3.0,8.0,41,0.00,,SKC,0.00,VWS V15.00,2014-01-24 20:15:00,
2014-01-24 14:20:00,35.4,14.1,30.50,SSW,198,3.0,8.0,41,0.00,,SKC,0.00,VWS V15.00,2014-01-24 20:20:00,
2014-01-24 14:25:00,35.9,13.9,30.49,West,260,1.0,8.0,40,0.00,,SKC,0.00,VWS V15.00,2014-01-24 20:25:00,
2014-01-24 14:30:00,35.9,14.5,30.49,SSW,210,1.0,8.0,41,0.00,,SKC,0.00,VWS V15.00,2014-01-24 20:30:00,
2014-01-24 14:35:00,36.6,14.0,30.49,WNW,303,3.0,5.0,39,0.00,,SKC,0.00,VWS V15.00,2014-01-24 20:35:00,
2014-01-24 14:40:00,36.7,15.2,30.49,West,276,4.0,5.0,41,0.00,,SKC,0.00,VWS V15.00,2014-01-24 20:40:00,
2014-01-24 14:45:00,36.7,13.5,30.48,SW,229,5.0,7.0,38,0.00,,SKC,0.00,VWS V15.00,2014-01-24 20:45:00,
2014-01-24 14:50:00,36.8,14.2,30.48,West,266,4.0,9.0,39,0.00,,SKC,0.00,VWS V15.00,2014-01-24 20:50:00,
2014-01-24 14:55:00,37.0,13.8,30.48,WSW,253,5.0,9.0,38,0.00,,SKC,0.00,VWS V15.00,2014-01-24 20:55:00,
2014-01-24 15:00:00,37.5,14.2,30.48,SW,218,5.0,9.0,38,0.00,,SKC,0.00,VWS V15.00,2014-01-24 21:00:00,
2014-01-24 15:05:00,37.2,14.5,30.47,SSW,201,1.0,6.0,39,0.00,,SKC,0.00,VWS V15.00,2014-01-24 21:05:00,
2014-01-24 15:10:00,37.2,13.3,30.47,SW,236,2.0,7.0,37,0.00,,SKC,0.00,VWS V15.00,2014-01-24 21:10:00,
2014-01-24 15:15:00,37.5,13.6,30.47,SW,233,5.0,8.0,37,0.00,,SKC,0.00,VWS V15.00,2014-01-24 21:15:00,
2014-01-24 15:20:00,37.9,14.0,30.46,West,264,1.0,8.0,37,0.00,,SKC,0.00,VWS V15.00,2014-01-24 21:20:00,
2014-01-24 15:25:00,37.9,13.4,30.46,WNW,285,1.0,8.0,36,0.00,,SKC,0.00,VWS V15.00,2014-01-24 21:25:00,
2014-01-24 15:30:00,38.0,14.1,30.46,SW,217,5.0,8.0,37,0.00,,SKC,0.00,VWS V15.00,2014-01-24 21:30:00,
2014-01-24 15:35:00,38.5,14.5,30.46,WSW,238,5.0,6.0,37,0.00,,SKC,0.00,VWS V15.00,2014-01-24 21:35:00,
2014-01-24 15:40:00,38.8,14.8,30.45,West,261,2.0,6.0,37,0.00,,SKC,0.00,VWS V15.00,2014-01-24 21:40:00,
2014-01-24 15:45:00,39.0,14.9,30.45,West,265,4.0,6.0,37,0.00,,SKC,0.00,VWS V15.00,2014-01-24 21:45:00,
2014-01-24 15:50:00,38.9,14.9,30.45,SSW,196,2.0,6.0,37,0.00,,SKC,0.00,VWS V15.00,2014-01-24 21:50:00,
2014-01-24 15:55:00,39.5,16.0,30.45,SW,231,3.0,6.0,38,0.00,,SKC,0.00,VWS V15.00,2014-01-24 21:55:00,
2014-01-24 16:00:00,39.9,15.8,30.44,SW,228,4.0,7.0,37,0.00,,SKC,0.00,VWS V15.00,2014-01-24 22:00:00,
2014-01-24 16:05:00,39.9,16.4,30.44,WSW,245,9.0,9.0,38,0.00,,SKC,0.00,VWS V15.00,2014-01-24 22:05:00,
2014-01-24 16:10:00,39.7,16.2,30.44,WSW,239,4.0,9.0,38,0.00,,SKC,0.00,VWS V15.00,2014-01-24 22:10:00,
2014-01-24 16:15:00,40.0,16.5,30.44,WSW,238,3.0,9.0,38,0.00,,SKC,0.00,VWS V15.00,2014-01-24 22:15:00,
2014-01-24 16:20:00,40.1,16.5,30.43,SW,226,3.0,9.0,38,0.00,,SKC,0.00,VWS V15.00,2014-01-24 22:20:00,
2014-01-24 16:25:00,40.3,16.7,30.43,WSW,238,2.0,9.0,38,0.00,,SKC,0.00,VWS V15.00,2014-01-24 22:25:00,
2014-01-24 16:30:00,40.5,16.9,30.42,SSW,211,4.0,9.0,38,0.00,,SKC,0.00,VWS V15.00,2014-01-24 22:30:00,
2014-01-24 16:35:00,40.6,17.0,30.42,West,265,5.0,8.0,38,0.00,,SKC,0.00,VWS V15.00,2014-01-24 22:35:00,
2014-01-24 16:40:00,40.3,16.1,30.42,SSW,198,3.0,8.0,37,0.00,,SKC,0.00,VWS V15.00,2014-01-24 22:40:00,
2014-01-24 16:45:00,40.6,17.0,30.41,WSW,245,6.0,8.0,38,0.00,,SKC,0.00,VWS V15.00,2014-01-24 22:45:00,
2014-01-24 16:50:00,40.5,16.3,30.41,West,263,5.0,8.0,37,0.00,,SKC,0.00,VWS V15.00,2014-01-24 22:50:00,
2014-01-24 16:55:00,40.3,16.1,30.41,SSW,208,4.0,8.0,37,0.00,,SKC,0.00,VWS V15.00,2014-01-24 22:55:00,
2014-01-24 17:00:00,40.4,15.6,30.41,SW,233,4.0,8.0,36,0.00,,SKC,0.00,VWS V15.00,2014-01-24 23:00:00,
2014-01-24 17:05:00,40.5,16.3,30.40,SW,226,4.0,6.0,37,0.00,,SKC,0.00,VWS V15.00,2014-01-24 23:05:00,
2014-01-24 17:10:00,40.3,15.5,30.40,SSW,203,2.0,6.0,36,0.00,,SKC,0.00,VWS V15.00,2014-01-24 23:10:00,
2014-01-24 17:15:00,40.1,15.9,30.39,SSW,198,5.0,9.0,37,0.00,,SKC,0.00,VWS V15.00,2014-01-24 23:15:00,
2014-01-24 17:20:00,40.1,15.9,30.39,South,183,5.0,9.0,37,0.00,,SKC,0.00,VWS V15.00,2014-01-24 23:20:00,
2014-01-24 17:25:00,40.0,15.9,30.39,SSW,208,4.0,9.0,37,0.00,,SKC,0.00,VWS V15.00,2014-01-24 23:25:00,
2014-01-24 17:30:00,39.7,15.6,30.39,SSE,164,5.0,9.0,37,0.00,,SKC,0.00,VWS V15.00,2014-01-24 23:30:00,
2014-01-24 17:35:00,39.4,15.9,30.39,SSE,166,2.0,6.0,38,0.00,,SKC,0.00,VWS V15.00,2014-01-24 23:35:00,
2014-01-24 17:40:00,39.2,16.3,30.39,South,184,2.0,6.0,39,0.00,,SKC,0.00,VWS V15.00,2014-01-24 23:40:00,
2014-01-24 17:45:00,38.9,16.1,30.40,SSW,210,5.0,6.0,39,0.00,,SKC,0.00,VWS V15.00,2014-01-24 23:45:00,
2014-01-24 17:50:00,38.0,15.3,30.39,South,181,1.0,6.0,39,0.00,,SKC,0.00,VWS V15.00,2014-01-24 23:50:00,
2014-01-24 17:55:00,37.2,15.7,30.39,SSW,200,1.0,6.0,41,0.00,,SKC,0.00,VWS V15.00,2014-01-24 23:55:00,
2014-01-24 18:00:00,36.6,15.7,30.39,SSE,164,0.0,6.0,42,0.00,,SKC,0.00,VWS V15.00,2014-01-25 00:00:00,
2014-01-24 18:05:00,36.0,15.1,30.38,SSE,164,1.0,2.0,42,0.00,,SKC,0.00,VWS V15.00,2014-01-25 00:05:00,
2014-01-24 18:10:00,35.5,15.8,30.38,SSE,157,0.0,2.0,44,0.00,,SKC,0.00,VWS V15.00,2014-01-25 00:10:00,
2014-01-24 18:15:00,35.0,15.8,30.39,SSE,157,1.0,3.0,45,0.00,,SKC,0.00,VWS V15.00,2014-01-25 00:15:00,
2014-01-24 18:20:00,34.5,15.9,30.38,SSE,155,1.0,3.0,46,0.00,,SKC,0.00,VWS V15.00,2014-01-25 00:20:00,
2014-01-24 18:25:00,34.3,16.2,30.38,SSE,147,2.0,3.0,47,0.00,,SKC,0.00,VWS V15.00,2014-01-25 00:25:00,
2014-01-24 18:30:00,33.9,15.8,30.38,SSE,154,2.0,3.0,47,0.00,,SKC,0.00,VWS V15.00,2014-01-25 00:30:00,
2014-01-24 18:35:00,33.6,16.0,30.38,SE,146,1.0,4.0,48,0.00,,SKC,0.00,VWS V15.00,2014-01-25 00:35:00,
2014-01-24 18:40:00,33.5,15.9,30.38,ESE,118,0.0,4.0,48,0.00,,SKC,0.00,VWS V15.00,2014-01-25 00:40:00,
2014-01-24 18:45:00,33.2,15.6,30.38,SSE,152,3.0,4.0,48,0.00,,SKC,0.00,VWS V15.00,2014-01-25 00:45:00,
2014-01-24 18:50:00,33.0,15.9,30.38,SE,141,1.0,4.0,49,0.00,,SKC,0.00,VWS V15.00,2014-01-25 00:50:00,
2014-01-24 18:55:00,32.9,15.9,30.38,ESE,107,0.0,4.0,49,0.00,,SKC,0.00,VWS V15.00,2014-01-25 00:55:00,
2014-01-24 19:00:00,32.7,15.7,30.38,ESE,107,0.0,4.0,49,0.00,,SKC,0.00,VWS V15.00,2014-01-25 01:00:00,
2014-01-24 19:05:00,32.7,15.7,30.38,ESE,110,1.0,1.0,49,0.00,,SKC,0.00,VWS V15.00,2014-01-25 01:05:00,
2014-01-24 19:10:00,32.6,15.6,30.38,South,171,0.0,2.0,49,0.00,,SKC,0.00,VWS V15.00,2014-01-25 01:10:00,
2014-01-24 19:15:00,32.3,15.8,30.38,South,171,0.0,2.0,50,0.00,,SKC,0.00,VWS V15.00,2014-01-25 01:15:00,
2014-01-24 19:20:00,32.0,15.5,30.38,South,171,0.0,2.0,50,0.00,,SKC,0.00,VWS V15.00,2014-01-25 01:20:00,
2014-01-24 19:25:00,31.9,15.4,30.38,South,171,0.0,2.0,50,0.00,,SKC,0.00,VWS V15.00,2014-01-25 01:25:00,
2014-01-24 19:30:00,31.7,15.2,30.38,South,171,0.0,2.0,50,0.00,,SKC,0.00,VWS V15.00,2014-01-25 01:30:00,
2014-01-24 19:35:00,31.6,15.1,30.38,South,171,0.0,0.0,50,0.00,,SKC,0.00,VWS V15.00,2014-01-25 01:35:00,
2014-01-24 19:40:00,31.4,14.9,30.39,South,171,0.0,0.0,50,0.00,,SKC,0.00,VWS V15.00,2014-01-25 01:40:00,
2014-01-24 19:45:00,31.4,14.9,30.38,South,171,0.0,0.0,50,0.00,,SKC,0.00,VWS V15.00,2014-01-25 01:45:00,
2014-01-24 19:50:00,31.3,14.8,30.38,South,171,0.0,0.0,50,0.00,,SKC,0.00,VWS V15.00,2014-01-25 01:50:00,
2014-01-24 19:55:00,31.2,15.2,30.38,South,171,0.0,1.0,51,0.00,,SKC,0.00,VWS V15.00,2014-01-25 01:55:00,
2014-01-24 20:00:00,31.2,14.7,30.38,South,171,0.0,1.0,50,0.00,,SKC,0.00,VWS V15.00,2014-01-25 02:00:00,
2014-01-24 20:05:00,30.8,14.8,30.38,South,171,0.0,0.0,51,0.00,,SKC,0.00,VWS V15.00,2014-01-25 02:05:00,
2014-01-24 20:10:00,30.8,15.3,30.38,South,171,0.0,1.0,52,0.00,,SKC,0.00,VWS V15.00,2014-01-25 02:10:00,
2014-01-24 20:15:00,31.0,15.4,30.38,South,171,0.0,1.0,52,0.00,,SKC,0.00,VWS V15.00,2014-01-25 02:15:00,
2014-01-24 20:20:00,30.9,14.9,30.38,South,171,0.0,1.0,51,0.00,,SKC,0.00,VWS V15.00,2014-01-25 02:20:00,
2014-01-24 20:25:00,30.6,15.1,30.38,South,171,1.0,1.0,52,0.00,,SKC,0.00,VWS V15.00,2014-01-25 02:25:00,
2014-01-24 20:30:00,30.9,15.4,30.37,South,170,0.0,1.0,52,0.00,,SKC,0.00,VWS V15.00,2014-01-25 02:30:00,
2014-01-24 20:35:00,31.2,15.6,30.37,South,180,0.0,1.0,52,0.00,,SKC,0.00,VWS V15.00,2014-01-25 02:35:00,
2014-01-24 20:40:00,31.1,15.5,30.37,SSE,160,1.0,1.0,52,0.00,,SKC,0.00,VWS V15.00,2014-01-25 02:40:00,
2014-01-24 20:45:00,31.0,15.4,30.37,SSE,160,0.0,2.0,52,0.00,,SKC,0.00,VWS V15.00,2014-01-25 02:45:00,
2014-01-24 20:50:00,30.9,15.4,30.36,SSE,163,0.0,2.0,52,0.00,,SKC,0.00,VWS V15.00,2014-01-25 02:50:00,
2014-01-24 20:55:00,30.9,15.4,30.36,SSE,163,0.0,2.0,52,0.00,,SKC,0.00,VWS V15.00,2014-01-25 02:55:00,
2014-01-24 21:00:00,30.9,15.4,30.36,SSE,163,0.0,2.0,52,0.00,,SKC,0.00,VWS V15.00,2014-01-25 03:00:00,
2014-01-24 21:05:00,30.7,15.2,30.36,SSE,163,0.0,0.0,52,0.00,,SKC,0.00,VWS V15.00,2014-01-25 03:05:00,
2014-01-24 21:10:00,30.3,15.2,30.36,SSE,163,0.0,0.0,53,0.00,,SKC,0.00,VWS V15.00,2014-01-25 03:10:00,
2014-01-24 21:15:00,30.1,15.1,30.36,SSE,163,0.0,0.0,53,0.00,,SKC,0.00,VWS V15.00,2014-01-25 03:15:00,
2014-01-24 21:20:00,30.1,15.5,30.35,SW,224,0.0,0.0,54,0.00,,SKC,0.00,VWS V15.00,2014-01-25 03:20:00,
2014-01-24 21:25:00,30.0,15.4,30.35,SSW,206,0.0,1.0,54,0.00,,SKC,0.00,VWS V15.00,2014-01-25 03:25:00,
2014-01-24 21:30:00,29.6,15.4,30.35,SSW,209,0.0,1.0,55,0.00,,SKC,0.00,VWS V15.00,2014-01-25 03:30:00,
2014-01-24 21:35:00,29.4,15.7,30.34,SW,214,0.0,1.0,56,0.00,,SKC,0.00,VWS V15.00,2014-01-25 03:35:00,
2014-01-24 21:40:00,29.3,15.6,30.34,SW,214,0.0,1.0,56,0.00,,SKC,0.00,VWS V15.00,2014-01-25 03:40:00,
2014-01-24 21:45:00,29.2,15.5,30.34,SW,214,0.0,1.0,56,0.00,,SKC,0.00,VWS V15.00,2014-01-25 03:45:00,
2014-01-24 21:50:00,29.1,15.4,30.34,SW,214,0.0,1.0,56,0.00,,SKC,0.00,VWS V15.00,2014-01-25 03:50:00,
2014-01-24 21:55:00,29.2,15.5,30.33,SW,214,0.0,1.0,56,0.00,,SKC,0.00,VWS V15.00,2014-01-25 03:55:00,
2014-01-24 22:00:00,29.2,15.5,30.34,SW,231,0.0,1.0,56,0.00,,SKC,0.00,VWS V15.00,2014-01-25 04:00:00,
2014-01-24 22:05:00,29.1,15.4,30.34,SW,231,0.0,0.0,56,0.00,,SKC,0.00,VWS V15.00,2014-01-25 04:05:00,
2014-01-24 22:10:00,29.1,15.8,30.34,SW,231,0.0,0.0,57,0.00,,SKC,0.00,VWS V15.00,2014-01-25 04:10:00,
2014-01-24 22:15:00,29.0,15.3,30.33,SW,231,0.0,0.0,56,0.00,,SKC,0.00,VWS V15.00,2014-01-25 04:15:00,
2014-01-24 22:20:00,29.0,15.3,30.33,SW,231,0.0,1.0,56,0.00,,SKC,0.00,VWS V15.00,2014-01-25 04:20:00,
2014-01-24 22:25:00,29.2,15.5,30.33,SW,231,0.0,1.0,56,0.00,,SKC,0.00,VWS V15.00,2014-01-25 04:25:00,
2014-01-24 22:30:00,29.1,15.4,30.33,SW,231,0.0,1.0,56,0.00,,SKC,0.00,VWS V15.00,2014-01-25 04:30:00,
2014-01-24 22:35:00,28.9,15.2,30.33,SW,231,0.0,0.0,56,0.00,,SKC,0.00,VWS V15.00,2014-01-25 04:35:00,
2014-01-24 22:40:00,29.1,15.8,30.33,SSW,205,0.0,0.0,57,0.00,,SKC,0.00,VWS V15.00,2014-01-25 04:40:00,
2014-01-24 22:45:00,29.2,15.5,30.33,SSW,205,0.0,0.0,56,0.00,,SKC,0.00,VWS V15.00,2014-01-25 04:45:00,
2014-01-24 22:50:00,29.5,15.8,30.33,SSW,205,0.0,0.0,56,0.00,,SKC,0.00,VWS V15.00,2014-01-25 04:50:00,
2014-01-24 22:55:00,29.7,15.9,30.33,SSW,205,0.0,0.0,56,0.00,,SKC,0.00,VWS V15.00,2014-01-25 04:55:00,
2014-01-24 23:00:00,29.9,16.1,30.33,SSW,205,0.0,0.0,56,0.00,,SKC,0.00,VWS V15.00,2014-01-25 05:00:00,
2014-01-24 23:01:00,29.9,16.1,30.33,SSW,205,0.0,0.0,56,0.00,,SKC,0.00,VWS V15.00,2014-01-25 05:01:00,
2014-01-24 23:06:00,30.1,16.3,30.32,SSW,196,0.0,0.0,56,0.00,,SKC,0.00,VWS V15.00,2014-01-25 05:06:00,
2014-01-24 23:11:00,30.2,16.4,30.33,South,191,0.0,1.0,56,0.00,,SKC,0.00,VWS V15.00,2014-01-25 05:11:00,
2014-01-24 23:16:00,30.4,16.6,30.33,South,191,0.0,1.0,56,0.00,,SKC,0.00,VWS V15.00,2014-01-25 05:16:00,
2014-01-24 23:21:00,30.5,16.7,30.33,SSW,192,0.0,1.0,56,0.00,,SKC,0.00,VWS V15.00,2014-01-25 05:21:00,
2014-01-24 23:26:00,30.7,16.9,30.32,SSW,197,0.0,1.0,56,0.00,,SKC,0.00,VWS V15.00,2014-01-25 05:26:00,
2014-01-24 23:30:00,30.7,16.5,30.32,SSW,197,0.0,1.0,55,0.00,,SKC,0.00,VWS V15.00,2014-01-25 05:30:00,
2014-01-24 23:31:00,30.7,16.9,30.32,SSW,197,0.0,1.0,56,0.00,,SKC,0.00,VWS V15.00,2014-01-25 05:31:00,
2014-01-24 23:36:00,30.6,16.8,30.32,SSW,197,0.0,0.0,56,0.00,,SKC,0.00,VWS V15.00,2014-01-25 05:36:00,
2014-01-24 23:41:00,30.3,16.5,30.32,SSW,210,0.0,1.0,56,0.00,,SKC,0.00,VWS V15.00,2014-01-25 05:41:00,
2014-01-24 23:46:00,30.2,16.8,30.32,SSW,210,0.0,1.0,57,0.00,,SKC,0.00,VWS V15.00,2014-01-25 05:46:00,
2014-01-24 23:51:00,30.2,17.2,30.32,SW,233,0.0,2.0,58,0.00,,SKC,0.00,VWS V15.00,2014-01-25 05:51:00,
2014-01-24 23:56:00,30.5,17.5,30.32,SW,224,1.0,2.0,58,0.00,,SKC,0.00,VWS V15.00,2014-01-25 05:56:00,